createdAt,value
2019-01-29T00:00:52.274Z,57.70
2019-01-29T00:03:20.948Z,63.28
2019-01-29T00:05:49.600Z,62.10
2019-01-29T00:08:19.444Z,59.50
2019-01-29T00:10:48.039Z,65.03
2019-01-29T00:13:16.701Z,56.20
2019-01-29T00:15:46.850Z,65.30
2019-01-29T00:18:18.447Z,63.13
2019-01-29T00:20:47.085Z,64.27
2019-01-29T00:23:15.794Z,57.53
2019-01-29T00:25:44.459Z,59.10
2019-01-29T00:28:14.645Z,55.33
2019-01-29T00:30:43.336Z,56.60
2019-01-29T00:33:12.612Z,54.97
2019-01-29T00:35:41.283Z,62.90
2019-01-29T00:38:10.003Z,51.10
2019-01-29T00:40:38.654Z,56.77
2019-01-29T00:43:07.320Z,59.53
2019-01-29T00:45:36.040Z,53.37
2019-01-29T00:48:04.710Z,57.07
2019-01-29T00:50:33.427Z,50.30
2019-01-29T00:53:02.152Z,46.27
2019-01-29T00:55:30.826Z,42.73
2019-01-29T00:57:59.497Z,36.60
2019-01-29T01:00:28.201Z,31.90
2019-01-29T01:02:56.904Z,43.50
2019-01-29T01:05:25.570Z,33.77
2019-01-29T01:07:54.238Z,37.37
2019-01-29T01:10:22.897Z,36.70
2019-01-29T01:12:51.570Z,32.60
2019-01-29T01:15:20.275Z,30.70
2019-01-29T01:17:48.934Z,29.80
2019-01-29T01:20:18.771Z,32.63
2019-01-29T01:22:51.046Z,27.63
2019-01-29T01:25:17.789Z,32.83
2019-01-29T01:27:46.444Z,33.23
2019-01-29T01:30:17.685Z,27.00
2019-01-29T01:32:47.149Z,29.10
2019-01-29T01:35:15.808Z,33.17
2019-01-29T01:37:45.251Z,28.90
2019-01-29T01:40:17.370Z,28.30
2019-01-29T01:42:46.053Z,28.03
2019-01-29T01:45:14.716Z,27.93
2019-01-29T01:47:43.395Z,29.13
2019-01-29T01:50:14.209Z,29.43
2019-01-29T01:52:42.883Z,31.87
2019-01-29T01:55:13.941Z,32.47
2019-01-29T01:57:42.658Z,29.17
2019-01-29T02:00:16.856Z,30.77
2019-01-29T02:02:45.557Z,29.07
2019-01-29T02:05:14.290Z,30.57
2019-01-29T02:07:42.961Z,30.33
2019-01-29T02:10:17.677Z,30.27
2019-01-29T02:12:46.354Z,32.77
2019-01-29T02:15:15.046Z,26.63
2019-01-29T02:17:43.724Z,28.77
2019-01-29T02:20:14.925Z,31.27
2019-01-29T02:22:45.803Z,32.70
2019-01-29T02:25:14.516Z,32.83
2019-01-29T02:27:43.215Z,31.67
2019-01-29T02:30:15.133Z,37.87
2019-01-29T02:32:43.792Z,27.90
2019-01-29T02:35:12.468Z,31.15
2019-01-29T02:37:41.170Z,30.27
2019-01-29T02:40:23.064Z,26.87
2019-01-29T02:42:51.793Z,31.73
2019-01-29T02:45:20.483Z,30.57
2019-01-29T02:47:49.137Z,34.17
2019-01-29T02:50:18.357Z,29.20
2019-01-29T02:52:47.035Z,28.87
2019-01-29T02:55:18.648Z,29.87
2019-01-29T02:57:49.836Z,32.87
2019-01-29T03:00:21.235Z,34.03
2019-01-29T03:02:49.914Z,30.93
2019-01-29T03:05:18.928Z,32.57
2019-01-29T03:07:47.587Z,29.93
2019-01-29T03:10:22.226Z,32.30
2019-01-29T03:12:50.921Z,27.43
2019-01-29T03:15:22.328Z,25.93
2019-01-29T03:17:51.055Z,25.70
2019-01-29T03:20:19.759Z,28.90
2019-01-29T03:22:48.445Z,26.93
2019-01-29T03:25:17.139Z,28.57
2019-01-29T03:27:48.258Z,27.53
2019-01-29T03:30:19.374Z,26.23
2019-01-29T03:32:48.138Z,29.43
2019-01-29T03:35:19.747Z,25.80
2019-01-29T03:37:48.409Z,26.67
2019-01-29T03:40:28.431Z,26.20
2019-01-29T03:42:57.195Z,27.53
2019-01-29T03:45:25.886Z,24.37
2019-01-29T03:47:54.629Z,25.27
2019-01-29T03:50:23.399Z,30.23
2019-01-29T03:52:52.046Z,24.90
2019-01-29T03:55:20.755Z,21.93
2019-01-29T03:57:49.392Z,23.43
2019-01-29T04:00:22.534Z,25.03
2019-01-29T04:02:51.267Z,27.10
2019-01-29T04:05:19.959Z,26.03
2019-01-29T04:07:48.610Z,24.83
2019-01-29T04:10:17.311Z,26.20
2019-01-29T04:12:46.383Z,26.53
2019-01-29T04:15:21.932Z,24.17
2019-01-29T04:17:55.741Z,24.73
2019-01-29T04:20:24.481Z,31.23
2019-01-29T04:22:53.171Z,34.17
2019-01-29T04:25:21.818Z,33.40
2019-01-29T04:27:50.579Z,28.63
2019-01-29T04:30:21.409Z,25.37
2019-01-29T04:32:52.590Z,25.37
2019-01-29T04:35:21.279Z,28.97
2019-01-29T04:37:49.967Z,27.20
2019-01-29T04:40:19.733Z,25.83
2019-01-29T04:42:48.654Z,25.53
2019-01-29T04:45:18.185Z,26.47
2019-01-29T04:47:46.900Z,25.73
2019-01-29T04:50:20.256Z,26.43
2019-01-29T04:52:49.624Z,24.80
2019-01-29T04:55:19.339Z,24.87
2019-01-29T04:57:48.019Z,25.37
2019-01-29T05:00:21.940Z,24.63
2019-01-29T05:02:50.696Z,28.03
2019-01-29T05:05:20.011Z,30.85
2019-01-29T05:07:48.697Z,25.73
2019-01-29T05:10:19.056Z,27.20
2019-01-29T05:12:47.776Z,28.47
2019-01-29T05:15:18.498Z,19.63
2019-01-29T05:17:47.200Z,18.77
2019-01-29T05:20:20.917Z,21.77
2019-01-29T05:22:49.569Z,20.33
2019-01-29T05:25:18.268Z,21.70
2019-01-29T05:27:47.000Z,21.07
2019-01-29T05:30:20.876Z,28.10
2019-01-29T05:32:49.836Z,23.77
2019-01-29T05:35:18.617Z,26.63
2019-01-29T05:37:47.320Z,23.53
2019-01-29T05:40:18.655Z,24.77
2019-01-29T05:42:47.349Z,26.27
2019-01-29T05:45:18.179Z,24.93
2019-01-29T05:47:46.836Z,31.13
2019-01-29T05:50:15.844Z,28.83
2019-01-29T05:52:44.540Z,28.70
2019-01-29T05:55:14.698Z,23.70
2019-01-29T05:57:43.444Z,24.87
2019-01-29T06:00:21.735Z,24.47
2019-01-29T06:02:50.452Z,28.30
2019-01-29T06:05:19.123Z,27.40
2019-01-29T06:07:47.775Z,28.33
2019-01-29T06:10:18.276Z,26.83
2019-01-29T06:12:46.943Z,29.33
2019-01-29T06:15:24.050Z,29.33
2019-01-29T06:17:52.743Z,24.60
2019-01-29T06:20:23.914Z,29.80
2019-01-29T06:22:55.433Z,27.07
2019-01-29T06:25:24.109Z,28.63
2019-01-29T06:27:52.764Z,24.23
2019-01-29T06:30:26.388Z,27.93
2019-01-29T06:32:55.048Z,21.37
2019-01-29T06:35:23.690Z,23.43
2019-01-29T06:37:52.408Z,24.37
2019-01-29T06:40:26.620Z,25.93
2019-01-29T06:42:55.278Z,24.00
2019-01-29T06:45:25.562Z,25.43
2019-01-29T06:47:54.584Z,27.33
2019-01-29T06:50:25.355Z,30.70
2019-01-29T06:52:54.364Z,22.17
2019-01-29T06:55:24.230Z,20.70
2019-01-29T06:57:55.443Z,24.33
2019-01-29T07:00:25.624Z,22.80
2019-01-29T07:02:54.331Z,25.57
2019-01-29T07:05:23.003Z,26.60
2019-01-29T07:07:51.723Z,22.40
2019-01-29T07:10:21.868Z,23.50
2019-01-29T07:12:50.565Z,26.80
2019-01-29T07:15:38.479Z,22.87
2019-01-29T07:18:08.699Z,25.10
2019-01-29T07:20:37.359Z,23.73
2019-01-29T07:23:06.108Z,25.37
2019-01-29T07:25:34.769Z,21.90
2019-01-29T07:28:03.430Z,19.63
2019-01-29T07:30:32.133Z,21.13
2019-01-29T07:33:00.790Z,23.03
2019-01-29T07:35:29.450Z,23.47
2019-01-29T07:37:58.169Z,20.30
2019-01-29T07:40:26.837Z,20.90
2019-01-29T07:42:55.495Z,24.03
2019-01-29T07:45:24.203Z,23.98
2019-01-29T07:47:52.849Z,24.80
2019-01-29T07:50:21.484Z,27.40
2019-01-29T07:52:50.190Z,24.83
2019-01-29T07:55:18.844Z,23.40
2019-01-29T07:57:47.541Z,21.93
2019-01-29T08:00:17.413Z,24.67
2019-01-29T08:02:46.141Z,35.63
2019-01-29T08:05:14.760Z,25.43
2019-01-29T08:07:43.521Z,23.27
2019-01-29T08:10:14.621Z,23.40
2019-01-29T08:12:43.313Z,28.65
2019-01-29T08:15:15.740Z,30.43
2019-01-29T08:17:45.034Z,26.13
2019-01-29T08:20:14.882Z,25.87
2019-01-29T08:22:43.611Z,25.63
2019-01-29T08:25:12.269Z,30.90
2019-01-29T08:27:40.942Z,24.83
2019-01-29T08:30:17.746Z,26.30
2019-01-29T08:32:46.384Z,22.90
2019-01-29T08:35:16.584Z,26.23
2019-01-29T08:37:45.556Z,24.23
2019-01-29T08:40:15.499Z,27.40
2019-01-29T08:42:44.167Z,27.60
2019-01-29T08:45:14.653Z,24.73
2019-01-29T08:47:43.327Z,28.60
2019-01-29T08:50:20.955Z,24.37
2019-01-29T08:52:49.801Z,28.50
2019-01-29T08:55:18.573Z,27.67
2019-01-29T08:57:47.311Z,30.93
2019-01-29T09:00:17.986Z,27.67
2019-01-29T09:02:47.932Z,32.83
2019-01-29T09:05:16.985Z,33.93
2019-01-29T09:07:47.221Z,38.15
2019-01-29T09:10:22.368Z,33.97
2019-01-29T09:12:51.031Z,35.07
2019-01-29T09:15:21.177Z,42.03
2019-01-29T09:17:49.937Z,36.03
2019-01-29T09:20:20.874Z,40.27
2019-01-29T09:22:49.574Z,33.70
2019-01-29T09:25:20.819Z,31.73
2019-01-29T09:27:51.592Z,30.77
2019-01-29T09:30:20.937Z,34.20
2019-01-29T09:32:49.860Z,31.67
2019-01-29T09:35:18.543Z,34.40
2019-01-29T09:37:47.163Z,33.73
2019-01-29T09:40:23.887Z,29.83
2019-01-29T09:42:52.665Z,30.40
2019-01-29T09:45:21.457Z,27.30
2019-01-29T09:47:50.214Z,27.27
2019-01-29T09:50:21.615Z,27.10
2019-01-29T09:52:50.381Z,26.33
2019-01-29T09:55:29.100Z,26.47
2019-01-29T09:57:52.811Z,23.53
2019-01-29T10:00:26.483Z,27.13
2019-01-29T10:02:55.187Z,27.03
2019-01-29T10:05:25.444Z,27.17
2019-01-29T10:07:54.115Z,28.60
2019-01-29T10:10:27.337Z,33.77
2019-01-29T10:13:02.122Z,28.43
2019-01-29T10:15:34.192Z,32.33
2019-01-29T10:18:02.818Z,31.17
2019-01-29T10:20:35.225Z,28.33
2019-01-29T10:23:08.096Z,31.27
2019-01-29T10:25:37.773Z,29.37
2019-01-29T10:28:07.012Z,30.77
2019-01-29T10:30:35.722Z,32.60
2019-01-29T10:33:08.710Z,29.02
2019-01-29T10:35:37.529Z,23.70
2019-01-29T10:38:08.111Z,26.63
2019-01-29T10:40:36.592Z,27.30
2019-01-29T10:43:08.244Z,26.83
2019-01-29T10:45:37.067Z,25.07
2019-01-29T10:48:05.720Z,29.10
2019-01-29T10:50:34.352Z,29.27
2019-01-29T10:53:03.103Z,31.47
2019-01-29T10:55:31.775Z,29.63
2019-01-29T10:58:00.459Z,30.77
2019-01-29T11:00:34.738Z,30.95
2019-01-29T11:03:03.450Z,27.73
2019-01-29T11:05:32.567Z,29.07
2019-01-29T11:08:01.731Z,25.70
2019-01-29T11:10:30.403Z,30.00
2019-01-29T11:12:59.042Z,29.47
2019-01-29T11:15:36.023Z,30.47
2019-01-29T11:18:07.797Z,30.30
2019-01-29T11:20:36.468Z,28.20
2019-01-29T11:23:06.091Z,28.90
2019-01-29T11:25:34.940Z,31.37
2019-01-29T11:28:03.571Z,36.23
2019-01-29T11:30:34.639Z,38.23
2019-01-29T11:33:03.358Z,35.17
2019-01-29T11:35:32.071Z,44.77
2019-01-29T11:38:00.766Z,41.40
2019-01-29T11:40:34.759Z,55.97
2019-01-29T11:43:03.573Z,42.07
2019-01-29T11:45:38.166Z,40.13
2019-01-29T11:48:06.831Z,39.77
2019-01-29T11:50:35.465Z,38.60
2019-01-29T11:53:04.284Z,35.17
2019-01-29T11:55:34.574Z,42.17
2019-01-29T11:58:03.300Z,35.73
2019-01-29T12:00:41.641Z,41.67
2019-01-29T12:03:10.416Z,44.40
2019-01-29T12:05:39.115Z,43.27
2019-01-29T12:08:07.804Z,45.33
2019-01-29T12:10:36.464Z,50.27
2019-01-29T12:13:05.720Z,41.90
2019-01-29T12:15:34.469Z,43.67
2019-01-29T12:18:07.824Z,40.57
2019-01-29T12:20:36.514Z,39.53
2019-01-29T12:23:05.269Z,40.60
2019-01-29T12:25:33.966Z,36.37
2019-01-29T12:28:05.785Z,34.00
2019-01-29T12:30:34.511Z,38.37
2019-01-29T12:33:04.563Z,36.50
2019-01-29T12:35:35.072Z,40.80
2019-01-29T12:38:03.757Z,37.43
2019-01-29T12:40:33.998Z,48.87
2019-01-29T12:43:02.722Z,40.97
2019-01-29T12:45:39.495Z,36.53
2019-01-29T12:48:08.177Z,39.50
2019-01-29T12:50:38.458Z,35.80
2019-01-29T12:53:08.753Z,40.90
2019-01-29T12:55:37.398Z,42.63
2019-01-29T12:58:06.095Z,43.30
2019-01-29T13:03:35.860Z,41.43
2019-01-29T13:06:05.161Z,39.10
2019-01-29T13:08:33.847Z,39.17
2019-01-29T13:11:02.604Z,38.97
2019-01-29T13:13:31.259Z,41.65
2019-01-29T13:16:00.000Z,42.80
2019-01-29T13:18:28.683Z,37.77
2019-01-29T13:21:00.103Z,42.03
2019-01-29T13:23:28.874Z,41.63
2019-01-29T13:25:57.529Z,40.97
2019-01-29T13:28:26.373Z,39.60
2019-01-29T13:30:59.477Z,40.17
2019-01-29T13:33:28.243Z,36.33
2019-01-29T13:35:56.909Z,43.67
2019-01-29T13:38:25.590Z,39.43
2019-01-29T13:40:54.291Z,48.23
2019-01-29T13:43:23.051Z,47.47
2019-01-29T13:45:53.582Z,43.27
2019-01-29T13:48:23.802Z,46.53
2019-01-29T13:50:52.600Z,43.27
2019-01-29T13:53:21.428Z,48.30
2019-01-29T13:55:51.394Z,41.90
2019-01-29T13:58:20.045Z,41.67
2019-01-29T14:00:48.864Z,47.87
2019-01-29T14:03:18.702Z,44.97
2019-01-29T14:05:47.730Z,44.63
2019-01-29T14:08:19.584Z,43.70
2019-01-29T14:10:48.939Z,43.10
2019-01-29T14:13:17.749Z,41.67
2019-01-29T14:15:54.591Z,44.13
2019-01-29T14:18:23.284Z,47.03
2019-01-29T14:20:54.886Z,44.37
2019-01-29T14:23:24.967Z,46.87
2019-01-29T14:25:59.685Z,41.17
2019-01-29T14:28:28.361Z,42.53
2019-01-29T14:33:41.874Z,46.83
2019-01-29T14:36:16.572Z,50.53
2019-01-29T14:39:24.838Z,46.20
2019-01-29T14:41:51.022Z,41.53
2019-01-29T14:44:19.681Z,48.80
2019-01-29T14:46:48.428Z,40.70
2019-01-29T14:49:17.058Z,46.97
2019-01-29T14:51:45.715Z,48.23
2019-01-29T14:54:14.549Z,47.20
2019-01-29T14:56:56.703Z,46.83
2019-01-29T14:59:18.204Z,45.10
2019-01-29T15:01:50.699Z,51.33
2019-01-29T15:04:19.389Z,51.77
2019-01-29T15:06:48.065Z,47.27
2019-01-29T15:09:17.586Z,45.13
2019-01-29T15:11:46.524Z,46.93
2019-01-29T15:14:15.258Z,50.97
2019-01-29T15:16:47.451Z,45.87
2019-01-29T15:19:18.044Z,47.17
2019-01-29T15:21:46.507Z,48.57
2019-01-29T15:24:15.250Z,41.77
2019-01-29T15:26:43.915Z,44.70
2019-01-29T15:29:15.998Z,44.87
2019-01-29T15:31:45.472Z,42.30
2019-01-29T15:34:14.153Z,47.17
2019-01-29T15:36:44.167Z,47.13
2019-01-29T15:39:14.059Z,51.67
2019-01-29T15:41:42.752Z,47.47
2019-01-29T15:44:11.436Z,47.27
2019-01-29T15:46:41.686Z,54.27
2019-01-29T15:49:14.327Z,50.73
2019-01-29T15:51:43.060Z,56.97
2019-01-29T15:54:17.158Z,48.43
2019-01-29T15:56:45.867Z,46.57
2019-01-29T15:59:16.873Z,47.70
2019-01-29T16:01:45.570Z,46.77
2019-01-29T16:04:14.263Z,49.50
2019-01-29T16:06:42.938Z,50.33
2019-01-29T16:09:11.658Z,45.33
2019-01-29T16:11:41.612Z,47.53
2019-01-29T16:14:10.301Z,48.97
2019-01-29T16:16:40.201Z,47.90
2019-01-29T16:19:09.070Z,51.17
2019-01-29T16:21:37.758Z,46.67
2019-01-29T16:24:06.487Z,53.17
2019-01-29T16:26:37.181Z,45.83
2019-01-29T16:29:05.556Z,79.53
2019-01-29T16:31:37.446Z,50.07
2019-01-29T16:34:07.659Z,47.30
2019-01-29T16:36:37.939Z,56.47
2019-01-29T16:39:09.472Z,46.20
2019-01-29T16:41:38.086Z,49.50
2019-01-29T16:44:06.973Z,46.47
2019-01-29T16:46:38.321Z,45.13
2019-01-29T16:49:08.766Z,49.83
2019-01-29T16:51:42.633Z,40.87
2019-01-29T16:54:16.427Z,47.67
2019-01-29T16:56:46.345Z,47.73
2019-01-29T16:59:18.131Z,46.10
2019-01-29T17:01:50.028Z,46.23
2019-01-29T17:04:20.341Z,44.57
2019-01-29T17:06:49.038Z,52.83
2019-01-29T17:09:17.859Z,39.27
2019-01-29T17:11:46.545Z,46.67
2019-01-29T17:14:15.292Z,47.47
2019-01-29T17:16:44.018Z,48.60
2019-01-29T17:19:14.274Z,48.67
2019-01-29T17:21:44.571Z,47.57
2019-01-29T17:24:13.345Z,47.97
2019-01-29T17:26:42.034Z,49.40
2019-01-29T17:29:10.868Z,53.23
2019-01-29T17:31:45.072Z,47.67
2019-01-29T17:34:13.891Z,52.67
2019-01-29T17:36:43.899Z,47.80
2019-01-29T17:39:14.949Z,49.13
2019-01-29T17:41:43.152Z,47.90
2019-01-29T17:44:13.413Z,84.53
2019-01-29T17:46:42.268Z,52.07
2019-01-29T17:49:13.661Z,56.20
2019-01-29T17:51:42.331Z,56.93
2019-01-29T17:54:11.081Z,49.37
2019-01-29T17:56:58.179Z,48.53
2019-01-29T17:59:27.195Z,56.83
2019-01-29T18:01:55.877Z,49.37
2019-01-29T18:04:27.519Z,55.27
2019-01-29T18:06:56.207Z,70.87
2019-01-29T18:09:24.912Z,54.10
2019-01-29T18:11:56.937Z,48.57
2019-01-29T18:14:35.798Z,52.37
2019-01-29T18:17:07.611Z,65.33
2019-01-29T18:19:37.863Z,61.28
2019-01-29T18:22:08.089Z,55.37
2019-01-29T18:24:36.746Z,54.43
2019-01-29T18:27:07.262Z,53.13
2019-01-29T18:29:38.342Z,49.23
2019-01-29T18:32:08.587Z,50.47
2019-01-29T18:34:37.299Z,67.13
2019-01-29T18:37:06.072Z,57.17
2019-01-29T18:39:34.718Z,55.83
2019-01-29T18:42:04.090Z,51.90
2019-01-29T18:44:51.315Z,54.10
2019-01-29T18:47:15.942Z,56.13
2019-01-29T18:49:49.184Z,53.27
2019-01-29T19:01:06.680Z,52.17
2019-01-29T19:03:35.292Z,53.77
2019-01-29T19:06:03.982Z,59.23
2019-01-29T19:08:34.523Z,54.90
2019-01-29T19:11:04.761Z,56.63
2019-01-29T19:13:33.476Z,54.33
2019-01-29T19:16:02.122Z,51.33
2019-01-29T19:18:30.854Z,51.83
2019-01-29T19:20:59.562Z,60.77
2019-01-29T19:23:28.311Z,55.37
2019-01-29T19:25:57.023Z,56.77
2019-01-29T19:28:25.818Z,50.30
2019-01-29T19:30:54.493Z,55.13
2019-01-29T19:33:23.232Z,50.70
2019-01-29T19:35:51.917Z,52.83
2019-01-29T19:38:21.541Z,58.43
2019-01-29T19:40:50.316Z,53.40
2019-01-29T19:43:19.102Z,58.30
2019-01-29T19:45:47.858Z,59.25
2019-01-29T19:48:19.676Z,55.73
2019-01-29T19:50:48.439Z,50.27
2019-01-29T19:53:17.130Z,51.97
2019-01-29T19:55:45.868Z,51.40
2019-01-29T19:58:16.305Z,61.10
2019-01-29T20:00:46.557Z,59.30
2019-01-29T20:03:18.059Z,79.93
2019-01-29T20:05:48.908Z,95.37
2019-01-29T20:08:17.710Z,47.87
2019-01-29T20:10:46.391Z,54.20
2019-01-29T20:13:15.053Z,59.70
2019-01-29T20:15:43.716Z,49.87
2019-01-29T20:18:12.462Z,49.47
2019-01-29T20:20:41.772Z,49.37
2019-01-29T20:23:10.501Z,53.90
2019-01-29T20:25:39.186Z,53.27
2019-01-29T20:28:09.117Z,49.37
2019-01-29T20:31:19.484Z,49.70
2019-01-29T20:33:50.708Z,52.23
2019-01-29T20:36:19.435Z,55.07
2019-01-29T20:38:48.192Z,63.27
2019-01-29T20:41:16.871Z,55.53
2019-01-29T20:43:45.548Z,54.37
2019-01-29T20:46:14.295Z,57.83
2019-01-29T20:48:42.929Z,52.87
2019-01-29T20:51:12.845Z,51.67
2019-01-29T20:53:41.492Z,52.57
2019-01-29T20:56:10.176Z,50.43
2019-01-29T20:58:38.866Z,56.77
2019-01-29T21:01:07.722Z,50.80
2019-01-29T21:03:36.464Z,51.53
2019-01-29T21:06:05.184Z,55.43
2019-01-29T21:08:33.894Z,51.07
2019-01-29T21:11:04.595Z,49.80
2019-01-29T21:13:33.239Z,51.23
2019-01-29T21:16:01.919Z,59.77
2019-01-29T21:18:30.605Z,54.90
2019-01-29T21:20:59.264Z,48.73
2019-01-29T21:23:27.987Z,55.60
2019-01-29T21:25:58.210Z,54.60
2019-01-29T21:28:26.895Z,57.83
2019-01-29T21:30:55.674Z,63.48
2019-01-29T21:33:24.378Z,52.90
2019-01-29T21:35:53.044Z,60.43
2019-01-29T21:38:24.025Z,55.77
2019-01-29T21:40:52.679Z,59.17
2019-01-29T21:43:21.379Z,60.50
2019-01-29T21:45:51.332Z,61.17
2019-01-29T21:48:19.955Z,52.43
2019-01-29T21:50:48.621Z,58.13
2019-01-29T21:53:17.350Z,64.90
2019-01-29T21:55:48.979Z,61.87
2019-01-29T21:58:17.703Z,70.73
2019-01-29T22:00:46.389Z,70.63
2019-01-29T22:03:15.088Z,70.43
2019-01-29T22:05:43.949Z,77.27
2019-01-29T22:08:12.754Z,65.40
2019-01-29T22:10:45.008Z,71.73
2019-01-29T22:13:13.325Z,77.87
2019-01-29T22:15:42.024Z,63.33
2019-01-29T22:18:10.998Z,68.70
2019-01-29T22:23:28.413Z,83.67
2019-01-29T22:25:57.085Z,71.60
2019-01-29T22:28:25.736Z,73.93
2019-01-29T22:30:54.829Z,68.13
2019-01-29T22:33:23.456Z,82.43
2019-01-29T22:35:52.118Z,78.33
2019-01-29T22:38:20.823Z,70.50
2019-01-29T22:40:49.563Z,75.07
2019-01-29T22:43:18.267Z,78.30
2019-01-29T22:45:47.010Z,68.07
2019-01-29T22:48:15.650Z,58.07
2019-01-29T22:50:44.300Z,61.10
2019-01-29T22:53:13.927Z,66.63
2019-01-29T22:55:42.574Z,69.93
2019-01-29T22:58:12.721Z,58.07
2019-01-29T23:00:52.040Z,64.80
2019-01-29T23:03:24.884Z,63.60
2019-01-29T23:05:56.772Z,63.50
2019-01-29T23:08:25.410Z,60.83
2019-01-29T23:10:57.340Z,59.70
2019-01-29T23:13:25.986Z,73.50
2019-01-29T23:15:54.664Z,64.10
2019-01-29T23:18:23.229Z,62.80
2019-01-29T23:20:51.918Z,60.10
2019-01-29T23:23:22.346Z,64.87
2019-01-29T23:25:50.967Z,65.50
2019-01-29T23:28:19.678Z,61.07
2019-01-29T23:30:48.380Z,61.50
2019-01-29T23:33:17.047Z,59.80
2019-01-29T23:35:45.774Z,56.77
2019-01-29T23:38:14.436Z,49.57
2019-01-29T23:40:43.124Z,61.53
2019-01-29T23:43:11.845Z,57.07
2019-01-29T23:45:40.610Z,61.50
2019-01-29T23:48:09.280Z,59.20
2019-01-29T23:50:38.002Z,64.87
2019-01-29T23:53:06.688Z,70.12
2019-01-29T23:55:35.336Z,66.70
2019-01-29T23:58:07.203Z,65.17
